Time;durP1;ratioP1;P1;durP2;ratioP2;P2;SDS_P1;SDS_P2;PMS_P1;PMS_P2;Temp;Humidity;BMP_temperature;BMP_pressure;BME280_temperature;BME280_humidity;BME280_pressure;Samples;Min_cycle;Max_cycle;Signal;HPM_P1;HPM_P2
2023/12/11 00:01:07;;;;;;;2.07;0.80;;;10.90;1.00;;;;;;5138815;27;20182;-42
2023/12/11 00:03:33;;;;;;;1.77;1.23;;;10.70;99.90;;;;;;5137317;27;20175;-42
2023/12/11 00:05:58;;;;;;;1.00;0.60;;;10.50;99.90;;;;;;5138377;27;20183;-41
2023/12/11 00:08:24;;;;;;;2.27;1.00;;;10.30;99.90;;;;;;5137778;27;20227;-42
2023/12/11 00:10:50;;;;;;;2.77;0.97;;;10.20;99.90;;;;;;5137022;27;20258;-43
2023/12/11 00:13:15;;;;;;;1.27;0.70;;;10.00;99.90;;;;;;5137050;27;20453;-40
2023/12/11 00:15:41;;;;;;;1.97;0.97;;;9.90;99.90;;;;;;5138018;27;20163;-43
2023/12/11 00:18:07;;;;;;;2.60;1.63;;;9.80;1.00;;;;;;5120454;28;20187;-41
2023/12/11 00:20:33;;;;;;;1.93;1.10;;;9.80;1.00;;;;;;5137338;28;20171;-41
2023/12/11 00:22:59;;;;;;;2.17;0.97;;;9.70;1.00;;;;;;5137664;27;20179;-43
2023/12/11 00:25:26;;;;;;;1.50;0.87;;;9.70;1.00;;;;;;5126293;27;20183;-43
2023/12/11 00:27:52;;;;;;;2.50;1.10;;;9.60;1.00;;;;;;5145343;27;20456;-42
2023/12/11 00:30:17;;;;;;;2.10;0.87;;;9.60;1.00;;;;;;5144828;27;20429;-44
2023/12/11 00:32:43;;;;;;;2.60;0.90;;;9.60;1.00;;;;;;5145182;27;20179;-40
2023/12/11 00:35:09;;;;;;;3.50;1.27;;;9.60;1.00;;;;;;5126493;27;20548;-42
2023/12/11 00:37:34;;;;;;;1.10;0.70;;;9.60;1.00;;;;;;5143845;27;20568;-41
2023/12/11 00:40:15;;;;;;;1.53;0.97;;;9.50;23.10;;;;;;5144115;27;20491;-42
2023/12/11 00:42:41;;;;;;;2.53;0.70;;;9.50;40.90;;;;;;5109893;27;20519;-42
2023/12/11 00:45:07;;;;;;;1.30;0.80;;;9.50;65.50;;;;;;5144879;27;20205;-41
2023/12/11 00:47:33;;;;;;;1.50;0.70;;;9.50;97.90;;;;;;5109639;27;20237;-42
2023/12/11 00:49:58;;;;;;;1.83;1.23;;;9.50;99.90;;;;;;5144869;27;20535;-44
2023/12/11 00:52:24;;;;;;;2.50;1.30;;;9.50;99.90;;;;;;5144442;27;20186;-41
2023/12/11 00:54:50;;;;;;;2.23;0.70;;;9.50;99.90;;;;;;5144045;27;20174;-42
2023/12/11 00:57:15;;;;;;;0.80;0.50;;;9.40;99.90;;;;;;5144768;27;20515;-42
2023/12/11 00:59:41;;;;;;;1.80;1.00;;;9.40;99.90;;;;;;5145204;27;20219;-41
2023/12/11 01:02:07;;;;;;;1.63;0.93;;;9.40;99.90;;;;;;5143737;27;20171;-43
2023/12/11 01:04:36;;;;;;;2.23;0.93;;;9.40;99.90;;;;;;5143266;27;20179;-42
2023/12/11 01:07:01;;;;;;;1.40;0.90;;;9.40;99.90;;;;;;5143577;27;20182;-43
2023/12/11 01:09:27;;;;;;;1.90;1.27;;;9.40;99.90;;;;;;5144867;27;20729;-44
2023/12/11 01:11:52;;;;;;;2.40;0.80;;;9.40;99.90;;;;;;5143610;27;20251;-41
2023/12/11 01:14:18;;;;;;;1.10;0.77;;;9.40;99.90;;;;;;5143446;27;20315;-42
2023/12/11 01:16:44;;;;;;;1.30;0.70;;;9.40;99.90;;;;;;5143275;27;20182;-43
2023/12/11 01:19:10;;;;;;;2.13;0.90;;;9.40;99.90;;;;;;5143410;27;20524;-43
2023/12/11 01:21:36;;;;;;;1.20;0.70;;;9.40;99.90;;;;;;5141771;27;20589;-41
2023/12/11 01:24:01;;;;;;;4.40;0.77;;;9.40;99.90;;;;;;5142554;27;20433;-40
2023/12/11 01:26:27;;;;;;;1.37;0.90;;;9.40;99.90;;;;;;5143726;27;20457;-43
2023/12/11 01:28:53;;;;;;;2.00;0.77;;;9.40;99.90;;;;;;5144183;27;20229;-42
2023/12/11 01:31:18;;;;;;;4.33;0.90;;;9.40;99.90;;;;;;5144208;27;20844;-40
2023/12/11 01:33:44;;;;;;;1.30;0.60;;;9.40;99.90;;;;;;5126440;27;20457;-46
2023/12/11 01:36:10;;;;;;;1.60;0.80;;;9.40;99.90;;;;;;5139267;27;20171;-43
2023/12/11 01:38:35;;;;;;;1.07;0.60;;;9.40;99.90;;;;;;5140981;27;20255;-43
2023/12/11 01:41:01;;;;;;;1.10;0.70;;;9.40;99.90;;;;;;5140931;27;20186;-45
2023/12/11 01:43:27;;;;;;;1.80;0.60;;;9.40;99.90;;;;;;5141149;27;20182;-41
2023/12/11 01:46:11;;;;;;;1.50;0.80;;;9.40;99.90;;;;;;5141087;27;20432;-40
2023/12/11 01:48:36;;;;;;;1.03;0.50;;;9.40;99.90;;;;;;5139787;27;20207;-41
2023/12/11 01:51:03;;;;;;;0.70;0.40;;;9.40;99.90;;;;;;5139368;27;20479;-43
2023/12/11 01:53:29;;;;;;;1.00;0.43;;;9.40;99.90;;;;;;5139909;27;20211;-43
2023/12/11 01:55:54;;;;;;;1.53;0.37;;;9.40;99.90;;;;;;5140874;27;20416;-44
2023/12/11 01:58:21;;;;;;;1.30;0.47;;;9.40;99.90;;;;;;5139827;27;20421;-41
2023/12/11 02:00:47;;;;;;;1.53;0.40;;;9.40;99.90;;;;;;5140382;27;20468;-41
2023/12/11 02:03:12;;;;;;;1.27;0.50;;;9.40;99.90;;;;;;5140307;27;20646;-44
2023/12/11 02:05:38;;;;;;;0.97;0.50;;;9.40;99.90;;;;;;5140575;27;20710;-42
2023/12/11 02:08:04;;;;;;;1.97;0.60;;;9.40;99.90;;;;;;5139701;27;20225;-41
2023/12/11 02:10:30;;;;;;;1.00;0.63;;;9.40;99.90;;;;;;5140512;27;20183;-44
2023/12/11 02:12:55;;;;;;;1.43;0.63;;;9.50;99.90;;;;;;5140154;27;20432;-41
2023/12/11 02:15:38;;;;;;;1.27;0.53;;;9.50;99.90;;;;;;5140584;27;20189;-45
2023/12/11 02:18:04;;;;;;;0.73;0.40;;;9.50;99.90;;;;;;5140806;27;20254;-43
2023/12/11 02:20:30;;;;;;;0.90;0.43;;;9.50;99.90;;;;;;5140749;27;20841;-43
2023/12/11 02:22:58;;;;;;;0.80;0.40;;;9.50;99.90;;;;;;5139967;27;20456;-43
2023/12/11 02:25:24;;;;;;;1.43;0.60;;;9.50;99.90;;;;;;5139945;27;20183;-42
2023/12/11 02:27:50;;;;;;;0.90;0.50;;;9.50;99.90;;;;;;5139282;27;20453;-40
2023/12/11 02:30:15;;;;;;;1.43;0.50;;;9.50;99.90;;;;;;5140067;27;20497;-44
2023/12/11 02:32:41;;;;;;;0.77;0.40;;;9.50;99.90;;;;;;5139050;27;20569;-42
2023/12/11 02:35:07;;;;;;;1.03;0.50;;;9.50;99.90;;;;;;5139639;27;20175;-43
2023/12/11 02:37:32;;;;;;;1.60;0.60;;;9.60;99.90;;;;;;5139796;27;20472;-44
2023/12/11 02:39:58;;;;;;;0.70;0.30;;;9.60;99.90;;;;;;5138918;27;20525;-42
2023/12/11 02:42:23;;;;;;;1.70;0.50;;;9.60;99.90;;;;;;5139372;27;20267;-41
2023/12/11 02:44:49;;;;;;;0.80;0.40;;;9.60;99.90;;;;;;5139481;27;20247;-43
2023/12/11 02:47:15;;;;;;;1.07;0.50;;;9.60;99.90;;;;;;5138934;27;20206;-40
2023/12/11 02:49:40;;;;;;;1.00;0.50;;;9.60;99.90;;;;;;5138798;27;20500;-41
2023/12/11 02:52:06;;;;;;;0.73;0.40;;;9.60;99.90;;;;;;5137889;27;20175;-41
2023/12/11 02:54:32;;;;;;;1.43;0.77;;;9.60;99.90;;;;;;5139080;27;20247;-40
2023/12/11 02:56:57;;;;;;;1.53;0.77;;;9.60;99.90;;;;;;5138343;27;20474;-42
2023/12/11 02:59:23;;;;;;;0.97;0.33;;;9.60;99.90;;;;;;5139130;27;20225;-40
2023/12/11 03:01:48;;;;;;;1.00;0.50;;;9.60;99.90;;;;;;5138892;27;20183;-41
2023/12/11 03:04:14;;;;;;;2.87;1.60;;;9.70;99.90;;;;;;5139445;27;20172;-41
2023/12/11 03:06:40;;;;;;;0.80;0.40;;;9.60;99.90;;;;;;5139433;27;20195;-41
2023/12/11 03:09:07;;;;;;;1.17;0.60;;;9.60;99.90;;;;;;5138874;27;20206;-40
2023/12/11 03:14:55;;;;;;;0.80;0.30;;;9.60;99.90;;;;;;5138877;27;20403;-40
2023/12/11 03:17:21;;;;;;;0.97;0.50;;;9.60;99.90;;;;;;5138017;27;20436;-41
2023/12/11 03:19:46;;;;;;;0.80;0.47;;;9.60;99.90;;;;;;5138028;27;20597;-42
2023/12/11 03:22:12;;;;;;;1.30;0.50;;;9.60;99.90;;;;;;5138300;27;20171;-40
2023/12/11 03:24:38;;;;;;;1.00;0.50;;;9.60;99.90;;;;;;5138897;27;20185;-42
2023/12/11 03:27:04;;;;;;;1.00;0.40;;;9.60;99.90;;;;;;5120076;27;20270;-43
2023/12/11 03:29:30;;;;;;;1.10;0.37;;;9.60;99.90;;;;;;5138135;27;20593;-42
2023/12/11 03:31:55;;;;;;;0.80;0.40;;;9.70;99.90;;;;;;5136563;27;20565;-42
2023/12/11 03:34:21;;;;;;;1.00;0.40;;;9.70;99.90;;;;;;5138075;27;20286;-41
2023/12/11 03:36:46;;;;;;;1.47;0.60;;;9.70;99.90;;;;;;5137924;27;20174;-40
2023/12/11 03:39:12;;;;;;;0.90;0.60;;;9.70;99.90;;;;;;5138169;27;20183;-44
2023/12/11 03:41:39;;;;;;;4.60;1.00;;;9.70;99.90;;;;;;5138768;27;20255;-42
2023/12/11 03:44:04;;;;;;;1.30;0.70;;;9.70;99.90;;;;;;5138561;27;20471;-42
2023/12/11 03:46:30;;;;;;;1.20;0.50;;;9.70;99.90;;;;;;5138564;27;20433;-43
2023/12/11 03:48:56;;;;;;;1.00;0.40;;;9.70;99.90;;;;;;5137998;27;20449;-43
2023/12/11 03:51:21;;;;;;;1.33;0.90;;;9.70;99.90;;;;;;5137646;27;20628;-40
2023/12/11 03:53:47;;;;;;;1.23;0.70;;;9.70;99.90;;;;;;5137595;27;20179;-47
2023/12/11 03:56:13;;;;;;;1.43;0.50;;;9.70;99.90;;;;;;5137564;27;20175;-43
2023/12/11 03:58:38;;;;;;;1.10;0.60;;;9.70;99.90;;;;;;5137918;27;20398;-42
2023/12/11 04:01:04;;;;;;;1.57;0.50;;;9.70;99.90;;;;;;5137655;27;20183;-43
2023/12/11 04:03:31;;;;;;;0.60;0.30;;;9.70;99.90;;;;;;5138321;27;20179;-42
2023/12/11 04:05:57;;;;;;;2.10;0.50;;;9.70;99.90;;;;;;5138232;27;20533;-43
2023/12/11 04:08:23;;;;;;;0.70;0.30;;;9.70;99.90;;;;;;5137130;27;20532;-50
2023/12/11 04:10:48;;;;;;;1.10;0.50;;;9.70;99.90;;;;;;5136741;27;20417;-41
2023/12/11 04:13:14;;;;;;;0.90;0.50;;;9.70;99.90;;;;;;5135379;27;20258;-42
2023/12/11 04:15:40;;;;;;;0.90;0.50;;;9.60;99.90;;;;;;5136576;27;20171;-43
2023/12/11 04:18:05;;;;;;;0.90;0.40;;;9.60;99.90;;;;;;5135937;27;20194;-43
2023/12/11 04:20:31;;;;;;;0.70;0.40;;;9.60;99.90;;;;;;5137420;27;20195;-42
2023/12/11 04:22:57;;;;;;;1.20;0.50;;;9.60;99.90;;;;;;5137272;27;20186;-41
2023/12/11 04:25:22;;;;;;;0.80;0.40;;;9.50;99.90;;;;;;5138165;28;20179;-41
2023/12/11 04:27:48;;;;;;;1.20;0.40;;;9.50;99.90;;;;;;5138187;28;20531;-41
2023/12/11 04:30:14;;;;;;;1.00;0.40;;;9.50;99.90;;;;;;5136644;28;20438;-43
2023/12/11 04:32:39;;;;;;;0.90;0.50;;;9.50;99.90;;;;;;5137436;28;20269;-42
2023/12/11 04:35:05;;;;;;;1.63;0.40;;;9.50;99.90;;;;;;5135936;28;20225;-41
2023/12/11 04:37:31;;;;;;;0.90;0.50;;;9.50;99.90;;;;;;5135858;28;20487;-45
2023/12/11 04:39:57;;;;;;;0.80;0.40;;;9.40;1.00;;;;;;5135765;28;20536;-41
2023/12/11 04:42:22;;;;;;;0.80;0.40;;;9.40;1.00;;;;;;5137179;28;20441;-40
2023/12/11 04:44:48;;;;;;;0.80;0.40;;;9.40;1.00;;;;;;5136311;28;20225;-43
2023/12/11 04:47:14;;;;;;;6.23;1.37;;;9.40;1.00;;;;;;5136173;28;20185;-42
2023/12/11 04:49:42;;;;;;;0.90;0.60;;;9.40;1.00;;;;;;5135420;28;20504;-43
2023/12/11 04:52:08;;;;;;;1.27;0.60;;;9.30;1.00;;;;;;5134229;27;20235;-41
2023/12/11 04:54:34;;;;;;;1.67;0.60;;;9.30;1.00;;;;;;5133847;27;20404;-42
2023/12/11 04:56:59;;;;;;;1.00;0.53;;;9.30;1.00;;;;;;5133671;28;20510;-41
2023/12/11 04:59:25;;;;;;;0.90;0.57;;;9.20;99.90;;;;;;5133681;28;20258;-42
2023/12/11 05:01:51;;;;;;;1.27;0.77;;;9.20;99.90;;;;;;5135114;28;20179;-41
2023/12/11 05:04:16;;;;;;;1.03;0.60;;;9.20;1.00;;;;;;5136200;28;20190;-41
2023/12/11 05:06:43;;;;;;;1.23;0.80;;;9.20;99.90;;;;;;5135465;28;20185;-41
2023/12/11 05:09:09;;;;;;;1.07;0.93;;;9.10;99.90;;;;;;5135692;27;20199;-43
2023/12/11 05:11:35;;;;;;;1.10;0.70;;;9.10;99.90;;;;;;5139482;27;20857;-43
2023/12/11 05:14:01;;;;;;;1.10;0.73;;;9.10;99.90;;;;;;5139057;27;20432;-42
2023/12/11 05:16:26;;;;;;;0.93;0.63;;;9.10;99.90;;;;;;5140434;27;20179;-44
2023/12/11 05:18:52;;;;;;;1.57;0.67;;;9.00;99.90;;;;;;5140607;27;20496;-42
2023/12/11 05:22:04;;;;;;;1.43;0.60;;;9.00;99.90;;;;;;5141600;27;20178;-43
2023/12/11 05:24:30;;;;;;;0.90;0.50;;;9.00;99.90;;;;;;5139110;27;20250;-40
2023/12/11 05:26:55;;;;;;;0.80;0.50;;;9.00;99.90;;;;;;5139102;27;20459;-41
2023/12/11 05:29:21;;;;;;;1.03;0.73;;;9.00;99.90;;;;;;5140289;27;20496;-41
2023/12/11 05:31:47;;;;;;;1.00;0.70;;;8.90;99.90;;;;;;5139800;27;20276;-43
2023/12/11 05:34:12;;;;;;;1.27;0.60;;;8.90;99.90;;;;;;5139265;27;20261;-41
2023/12/11 05:36:38;;;;;;;1.20;0.77;;;8.90;99.90;;;;;;5120156;27;20194;-41
2023/12/11 05:39:04;;;;;;;1.03;0.57;;;8.90;99.90;;;;;;5138332;27;20464;-43
2023/12/11 05:41:29;;;;;;;1.83;0.60;;;8.90;99.90;;;;;;5140249;27;20549;-43
2023/12/11 05:43:58;;;;;;;1.53;0.73;;;8.90;99.90;;;;;;5137995;27;20225;-44
2023/12/11 05:46:23;;;;;;;1.60;0.80;;;8.90;99.90;;;;;;5137464;27;20234;-40
2023/12/11 05:48:49;;;;;;;1.97;1.20;;;8.90;99.90;;;;;;5137714;27;20866;-41
2023/12/11 05:51:15;;;;;;;1.50;0.57;;;8.90;99.90;;;;;;5138341;27;20235;-43
2023/12/11 05:53:41;;;;;;;0.90;0.70;;;8.90;99.90;;;;;;5137501;27;20561;-42
2023/12/11 05:56:07;;;;;;;1.00;0.60;;;8.90;99.90;;;;;;5138673;27;20413;-42
2023/12/11 05:58:33;;;;;;;1.17;0.70;;;8.90;99.90;;;;;;5139069;27;20195;-41
2023/12/11 06:00:59;;;;;;;1.30;0.63;;;8.80;99.90;;;;;;5138028;27;20452;-42
2023/12/11 06:03:24;;;;;;;1.23;0.70;;;8.90;99.90;;;;;;5138100;27;20179;-44
2023/12/11 06:05:57;;;;;;;1.07;0.63;;;8.90;99.90;;;;;;5138071;27;20202;-43
2023/12/11 06:08:26;;;;;;;0.87;0.50;;;8.90;99.90;;;;;;5136689;27;20202;-43
2023/12/11 06:10:51;;;;;;;2.00;0.60;;;8.90;99.90;;;;;;5135786;27;20400;-42
2023/12/11 06:13:17;;;;;;;0.70;0.40;;;8.90;99.90;;;;;;5135532;27;20485;-40
2023/12/11 06:15:43;;;;;;;2.10;0.77;;;8.90;99.90;;;;;;5136872;27;20549;-43
2023/12/11 06:18:09;;;;;;;0.87;0.67;;;8.90;99.90;;;;;;5135800;27;20212;-41
2023/12/11 06:20:34;;;;;;;1.67;0.87;;;9.00;99.90;;;;;;5136891;27;20511;-42
2023/12/11 06:23:00;;;;;;;1.60;0.90;;;8.90;99.90;;;;;;5134736;27;20263;-42
2023/12/11 06:25:26;;;;;;;1.30;0.70;;;9.00;99.90;;;;;;5136545;27;20183;-44
2023/12/11 06:27:52;;;;;;;1.00;0.60;;;8.90;99.90;;;;;;5136384;27;20219;-44
2023/12/11 06:30:18;;;;;;;2.80;0.90;;;8.90;99.90;;;;;;5136768;27;20183;-42
2023/12/11 06:32:44;;;;;;;1.33;0.90;;;9.00;1.00;;;;;;5137225;27;20424;-41
2023/12/11 06:35:09;;;;;;;2.20;0.80;;;8.90;99.90;;;;;;5136771;27;20171;-42
2023/12/11 06:37:35;;;;;;;1.20;0.73;;;8.90;99.90;;;;;;5137474;27;20178;-42
2023/12/11 06:40:03;;;;;;;1.67;0.80;;;8.90;99.90;;;;;;5136534;27;20179;-42
2023/12/11 06:42:32;;;;;;;2.70;0.80;;;9.00;99.90;;;;;;5134541;27;20202;-42
2023/12/11 06:44:59;;;;;;;1.60;0.80;;;9.00;1.00;;;;;;5135457;27;20424;-44
2023/12/11 06:47:25;;;;;;;2.40;0.80;;;9.00;1.00;;;;;;5135568;27;20912;-43
2023/12/11 06:49:50;;;;;;;1.73;1.00;;;9.00;1.00;;;;;;5134942;27;20468;-42
2023/12/11 06:52:16;;;;;;;1.33;1.10;;;9.00;1.00;;;;;;5133998;27;20177;-40
2023/12/11 06:54:42;;;;;;;2.77;1.37;;;9.00;1.00;;;;;;5135771;27;20541;-42
2023/12/11 06:57:08;;;;;;;1.50;0.90;;;9.00;1.00;;;;;;5136904;27;20198;-41
2023/12/11 06:59:34;;;;;;;1.90;1.50;;;9.00;1.00;;;;;;5135912;27;20467;-41
2023/12/11 07:01:59;;;;;;;3.80;1.70;;;9.00;1.00;;;;;;5137436;27;20181;-40
2023/12/11 07:04:26;;;;;;;3.13;1.67;;;9.00;1.00;;;;;;5136852;27;20211;-41
2023/12/11 07:06:52;;;;;;;1.83;1.37;;;9.00;1.00;;;;;;5137755;27;20238;-43
2023/12/11 07:09:17;;;;;;;2.57;1.50;;;9.10;1.00;;;;;;5137649;27;20467;-41
2023/12/11 07:11:43;;;;;;;2.37;1.40;;;9.00;99.90;;;;;;5137655;27;20190;-40
2023/12/11 07:14:09;;;;;;;2.30;1.43;;;9.10;99.90;;;;;;5135718;27;20576;-41
2023/12/11 07:16:35;;;;;;;2.27;1.60;;;9.10;99.90;;;;;;5136171;27;20258;-43
2023/12/11 07:19:05;;;;;;;2.57;1.53;;;9.10;99.90;;;;;;5135714;27;20175;-42
2023/12/11 07:21:30;;;;;;;2.50;1.60;;;9.10;99.90;;;;;;5136365;27;20587;-43
2023/12/11 07:23:56;;;;;;;2.63;1.60;;;9.10;99.90;;;;;;5137286;27;20519;-41
2023/12/11 07:26:22;;;;;;;2.20;1.80;;;9.10;99.90;;;;;;5135821;27;20468;-41
2023/12/11 07:28:48;;;;;;;2.23;1.60;;;9.10;99.90;;;;;;5136146;27;20207;-42
2023/12/11 07:31:13;;;;;;;3.53;2.20;;;9.10;99.90;;;;;;5136190;27;20286;-41
2023/12/11 07:33:39;;;;;;;3.67;3.10;;;9.10;99.90;;;;;;5135945;27;20229;-44
2023/12/11 07:36:05;;;;;;;4.67;3.90;;;9.10;99.90;;;;;;5135681;27;20573;-41
2023/12/11 07:38:31;;;;;;;3.57;3.13;;;9.10;99.90;;;;;;5138194;27;20183;-42
2023/12/11 07:40:57;;;;;;;4.50;4.10;;;9.10;99.90;;;;;;5137652;27;20415;-44
2023/12/11 07:43:23;;;;;;;5.03;4.53;;;9.10;99.90;;;;;;5136241;27;20182;-42
2023/12/11 07:45:49;;;;;;;5.00;4.50;;;9.10;99.90;;;;;;5135645;27;20424;-42
2023/12/11 07:48:15;;;;;;;4.30;3.90;;;9.10;99.90;;;;;;5135500;27;20723;-41
2023/12/11 07:50:40;;;;;;;4.03;3.57;;;9.10;99.90;;;;;;5134623;27;20774;-41
2023/12/11 07:53:06;;;;;;;5.00;3.27;;;9.10;99.90;;;;;;5135148;27;20171;-46
2023/12/11 07:55:33;;;;;;;3.80;2.93;;;9.20;99.90;;;;;;5136221;27;20508;-40
2023/12/11 07:57:59;;;;;;;5.03;2.97;;;9.20;99.90;;;;;;5135359;27;20431;-42
2023/12/11 08:00:25;;;;;;;4.70;3.17;;;9.30;99.90;;;;;;5137705;27;20421;-41
2023/12/11 08:02:51;;;;;;;3.77;3.37;;;9.40;99.90;;;;;;5137912;27;20519;-41
2023/12/11 08:05:17;;;;;;;3.63;3.30;;;9.40;99.90;;;;;;5137154;27;20183;-41
2023/12/11 08:07:43;;;;;;;4.40;4.00;;;9.40;99.90;;;;;;5135393;27;20459;-41
2023/12/11 08:10:10;;;;;;;3.90;3.57;;;9.50;99.90;;;;;;5137770;27;20424;-42
2023/12/11 08:12:35;;;;;;;3.73;3.43;;;9.50;99.90;;;;;;5136543;27;20428;-41
2023/12/11 08:15:03;;;;;;;4.20;3.80;;;9.50;99.90;;;;;;5137593;27;20447;-41
2023/12/11 08:17:28;;;;;;;5.57;4.20;;;9.50;99.90;;;;;;5136567;27;20518;-43
2023/12/11 08:19:54;;;;;;;6.03;3.50;;;9.40;99.90;;;;;;5136628;27;20511;-43
2023/12/11 08:22:20;;;;;;;6.40;4.17;;;9.40;99.90;;;;;;5135592;27;20428;-41
2023/12/11 08:24:47;;;;;;;7.87;7.00;;;9.40;99.90;;;;;;5135889;27;20175;-42
2023/12/11 08:27:13;;;;;;;8.00;7.23;;;9.40;99.90;;;;;;5134336;28;20174;-40
2023/12/11 08:29:38;;;;;;;6.80;6.20;;;9.50;99.90;;;;;;5135541;28;20572;-42
2023/12/11 08:32:04;;;;;;;8.53;4.50;;;9.50;99.90;;;;;;5136127;28;20175;-41
2023/12/11 08:34:30;;;;;;;4.90;3.83;;;9.60;99.90;;;;;;5135745;28;20240;-44
2023/12/11 08:36:56;;;;;;;3.83;3.43;;;9.60;99.90;;;;;;5137587;28;20526;-42
2023/12/11 08:39:22;;;;;;;3.40;2.77;;;9.70;99.90;;;;;;5135847;27;20183;-42
2023/12/11 08:41:48;;;;;;;3.77;2.97;;;9.80;99.90;;;;;;5135941;27;20782;-42
2023/12/11 08:44:15;;;;;;;3.20;2.10;;;9.90;99.90;;;;;;5136797;27;20518;-40
2023/12/11 08:46:40;;;;;;;3.17;2.13;;;10.00;85.00;;;;;;5139768;27;20813;-41
2023/12/11 08:49:06;;;;;;;2.73;1.70;;;10.10;57.00;;;;;;5141407;27;20478;-45
2023/12/11 08:51:33;;;;;;;4.40;1.27;;;10.30;27.10;;;;;;5138872;27;20322;-45
2023/12/11 08:53:58;;;;;;;5.43;0.97;;;10.50;99.90;;;;;;5139388;27;20199;-44
2023/12/11 08:56:24;;;;;;;1.60;0.90;;;11.30;1.00;;;;;;5139780;27;20452;-43
2023/12/11 08:58:53;;;;;;;5.40;1.70;;;12.20;1.00;;;;;;5139643;27;20445;-44
2023/12/11 09:01:18;;;;;;;5.70;2.10;;;13.20;1.00;;;;;;5139662;27;20209;-41
2023/12/11 09:03:45;;;;;;;3.10;1.90;;;13.70;1.00;;;;;;5138693;27;20523;-42
2023/12/11 09:06:13;;;;;;;3.47;1.80;;;14.00;24.90;;;;;;5140046;27;20424;-41
2023/12/11 09:08:39;;;;;;;3.27;2.10;;;14.00;99.90;;;;;;5138286;27;20476;-41
2023/12/11 09:11:05;;;;;;;3.50;2.00;;;13.90;99.90;;;;;;5139548;27;20816;-41
2023/12/11 09:13:31;;;;;;;3.47;2.40;;;13.70;1.00;;;;;;5138800;27;20548;-41
2023/12/11 09:15:56;;;;;;;2.93;1.90;;;13.50;99.90;;;;;;5139208;27;20420;-41
2023/12/11 09:18:22;;;;;;;4.57;1.90;;;13.20;99.90;;;;;;5138677;27;20281;-40
2023/12/11 09:20:48;;;;;;;2.53;1.90;;;12.90;99.90;;;;;;5139231;27;20185;-40
2023/12/11 09:23:14;;;;;;;2.73;2.30;;;12.70;99.90;;;;;;5139466;27;20841;-42
2023/12/11 09:25:41;;;;;;;5.10;2.10;;;12.50;1.00;;;;;;5137566;27;20172;-40
2023/12/11 09:28:06;;;;;;;2.27;1.33;;;12.30;1.00;;;;;;5138141;27;20589;-41
2023/12/11 09:30:32;;;;;;;2.13;1.63;;;12.20;1.00;;;;;;5139551;27;20515;-41
2023/12/11 09:32:58;;;;;;;2.20;1.80;;;12.10;1.00;;;;;;5140126;27;20469;-41
2023/12/11 09:35:23;;;;;;;2.50;1.80;;;12.00;6.50;;;;;;5139626;27;20172;-43
2023/12/11 09:37:49;;;;;;;3.23;1.60;;;12.00;99.90;;;;;;5139404;27;20187;-41
2023/12/11 09:40:15;;;;;;;2.90;1.73;;;12.00;99.90;;;;;;5139988;27;20179;-44
2023/12/11 09:42:43;;;;;;;2.93;2.03;;;12.00;99.90;;;;;;5141132;27;20277;-40
2023/12/11 09:45:10;;;;;;;4.23;2.73;;;12.20;99.90;;;;;;5140528;27;20171;-43
2023/12/11 09:47:55;;;;;;;4.20;1.60;;;12.40;80.30;;;;;;5139800;27;20444;-45
2023/12/11 09:50:21;;;;;;;2.10;1.43;;;12.50;1.00;;;;;;5138861;27;21071;-44
2023/12/11 09:52:47;;;;;;;2.10;1.37;;;12.60;99.90;;;;;;5138336;27;20428;-40
2023/12/11 09:55:13;;;;;;;2.07;1.50;;;12.90;99.90;;;;;;5138215;27;20186;-41
2023/12/11 09:57:40;;;;;;;2.40;1.40;;;12.70;99.90;;;;;;5133949;27;20463;-40
2023/12/11 10:00:08;;;;;;;3.43;1.17;;;12.80;1.00;;;;;;5138030;27;20417;-41
2023/12/11 10:02:34;;;;;;;2.50;1.43;;;12.90;1.00;;;;;;5138122;27;20519;-42
2023/12/11 10:05:08;;;;;;;2.40;1.00;;;12.90;67.10;;;;;;5134882;27;20889;-42
2023/12/11 10:07:35;;;;;;;3.37;1.20;;;12.90;1.00;;;;;;5135972;27;20182;-41
2023/12/11 10:10:20;;;;;;;3.83;1.30;;;13.00;1.00;;;;;;5137488;27;20499;-40
2023/12/11 10:12:46;;;;;;;2.17;1.00;;;13.30;1.00;;;;;;5139794;27;20523;-39
2023/12/11 10:15:22;;;;;;;3.10;1.43;;;13.60;1.00;;;;;;5137651;27;20416;-41
2023/12/11 10:18:06;;;;;;;2.10;1.20;;;13.60;99.90;;;;;;5137072;27;20427;-38
2023/12/11 10:20:34;;;;;;;1.50;0.97;;;13.70;99.90;;;;;;5137822;27;20425;-37
2023/12/11 10:23:12;;;;;;;3.80;1.27;;;13.90;99.90;;;;;;5137395;27;20417;-38
2023/12/11 10:25:41;;;;;;;2.40;1.00;;;14.20;99.90;;;;;;5137294;27;20481;-37
2023/12/11 10:28:17;;;;;;;2.60;1.30;;;14.60;99.90;;;;;;5137624;27;20552;-37
2023/12/11 10:30:50;;;;;;;1.60;1.10;;;14.90;1.00;;;;;;5138128;27;20532;-38
2023/12/11 10:33:18;;;;;;;1.43;1.00;;;15.10;99.90;;;;;;5139754;27;20435;-37
2023/12/11 10:35:45;;;;;;;2.20;1.10;;;15.20;64.70;;;;;;5137931;27;20442;-45
2023/12/11 10:38:11;;;;;;;2.20;0.80;;;15.60;1.00;;;;;;5137591;27;20427;-45
2023/12/11 10:40:41;;;;;;;2.53;1.10;;;15.90;1.00;;;;;;5137194;27;20421;-45
2023/12/11 10:43:07;;;;;;;1.73;1.00;;;16.30;99.90;;;;;;5136872;27;20328;-45
2023/12/11 10:45:33;;;;;;;1.87;0.73;;;16.40;99.90;;;;;;5136937;27;20448;-46
2023/12/11 10:48:00;;;;;;;4.83;0.97;;;16.20;99.90;;;;;;5125800;27;20902;-45
2023/12/11 10:50:27;;;;;;;1.70;0.90;;;16.00;99.90;;;;;;5111887;28;20897;-45
2023/12/11 10:52:53;;;;;;;2.93;1.10;;;15.70;99.90;;;;;;5115837;28;20417;-46
2023/12/11 10:55:19;;;;;;;3.60;1.20;;;15.40;99.90;;;;;;5115703;28;20919;-46
2023/12/11 10:57:45;;;;;;;2.87;1.20;;;15.10;99.90;;;;;;5115391;28;20993;-46
2023/12/11 11:00:13;;;;;;;2.60;1.20;;;14.90;1.00;;;;;;5116083;28;20417;-45
2023/12/11 11:02:42;;;;;;;2.10;1.13;;;15.00;1.00;;;;;;5115909;28;20418;-45
2023/12/11 11:05:08;;;;;;;2.10;1.30;;;15.00;1.00;;;;;;5114773;28;20478;-46
2023/12/11 11:07:36;;;;;;;4.13;1.53;;;15.00;1.00;;;;;;5114735;28;20422;-46
2023/12/11 11:10:06;;;;;;;5.03;1.20;;;14.90;1.00;;;;;;5116044;28;20767;-46
2023/12/11 11:12:48;;;;;;;2.80;1.20;;;14.80;1.00;;;;;;5114283;28;20802;-45
2023/12/11 11:15:20;;;;;;;1.67;0.80;;;14.80;1.00;;;;;;5097277;28;20731;-46
2023/12/11 11:18:06;;;;;;;2.33;1.00;;;14.80;1.00;;;;;;5113450;28;20429;-46
2023/12/11 11:20:33;;;;;;;2.10;0.93;;;14.80;1.00;;;;;;5115960;28;20428;-46
2023/12/11 11:23:13;;;;;;;2.37;0.90;;;14.80;99.90;;;;;;5115821;28;20483;-46
2023/12/11 11:25:40;;;;;;;3.40;1.10;;;14.80;99.90;;;;;;5115924;28;20520;-46
2023/12/11 11:28:06;;;;;;;3.77;1.33;;;14.80;99.90;;;;;;5113233;28;20505;-46
2023/12/11 11:30:44;;;;;;;1.80;0.90;;;14.90;99.90;;;;;;5115966;28;20508;-46
2023/12/11 11:33:11;;;;;;;3.70;1.30;;;15.40;99.90;;;;;;5115113;28;20420;-45
2023/12/11 11:35:46;;;;;;;2.80;1.30;;;15.80;99.90;;;;;;5116331;27;20433;-45
2023/12/11 11:38:13;;;;;;;2.10;1.10;;;16.10;99.90;;;;;;5116207;28;20469;-45
2023/12/11 11:40:38;;;;;;;3.83;1.70;;;16.20;44.40;;;;;;5110879;28;20425;-45
2023/12/11 11:43:08;;;;;;;2.73;1.30;;;16.20;28.60;;;;;;5115642;28;20429;-45
2023/12/11 11:45:34;;;;;;;2.00;1.20;;;16.30;18.20;;;;;;5113992;28;20191;-45
2023/12/11 11:48:00;;;;;;;1.70;1.00;;;16.40;1.00;;;;;;5111545;28;20461;-45
2023/12/11 11:50:25;;;;;;;2.33;1.00;;;16.80;1.00;;;;;;5112862;28;20219;-45
2023/12/11 11:53:07;;;;;;;3.23;1.00;;;16.90;1.00;;;;;;5113458;28;20750;-44
2023/12/11 11:55:36;;;;;;;2.43;1.27;;;16.90;1.00;;;;;;5094396;28;20621;-45
2023/12/11 11:58:12;;;;;;;3.67;2.37;;;16.70;1.00;;;;;;5114053;28;20425;-45
2023/12/11 12:00:38;;;;;;;3.67;1.43;;;16.50;1.00;;;;;;5113401;28;20425;-46
2023/12/11 12:03:08;;;;;;;3.10;1.67;;;16.40;1.00;;;;;;5115363;28;20512;-48
2023/12/11 12:05:38;;;;;;;5.63;1.90;;;16.20;1.00;;;;;;5126834;27;20191;-47
2023/12/11 12:08:07;;;;;;;7.97;1.57;;;16.20;1.00;;;;;;5133495;27;20462;-48
2023/12/11 12:10:34;;;;;;;7.00;1.90;;;16.60;47.80;;;;;;5115958;27;20876;-47
2023/12/11 12:13:00;;;;;;;5.47;1.80;;;17.40;1.00;;;;;;5114141;28;20524;-47
2023/12/11 12:15:27;;;;;;;7.70;1.63;;;17.70;1.00;;;;;;5113387;28;20433;-49
2023/12/11 12:17:52;;;;;;;4.53;1.70;;;17.70;1.00;;;;;;5115958;28;20838;-48
2023/12/11 12:20:19;;;;;;;3.97;1.87;;;17.80;1.00;;;;;;5112920;28;20432;-47
2023/12/11 12:23:01;;;;;;;3.37;1.70;;;18.90;1.00;;;;;;5115414;28;20192;-47
2023/12/11 12:25:27;;;;;;;4.80;1.80;;;20.80;1.00;;;;;;5111969;28;20457;-48
2023/12/11 12:27:57;;;;;;;3.53;1.47;;;22.10;1.00;;;;;;5110914;28;20500;-48
2023/12/11 12:30:22;;;;;;;3.50;2.20;;;23.00;1.00;;;;;;5112599;28;20417;-47
2023/12/11 12:32:50;;;;;;;4.83;1.57;;;23.30;1.00;;;;;;5113773;28;20497;-48
2023/12/11 12:35:17;;;;;;;13.90;2.80;;;22.80;1.00;;;;;;5094915;28;20175;-47
2023/12/11 12:37:43;;;;;;;3.50;1.67;;;22.20;1.00;;;;;;5114094;28;20422;-48
2023/12/11 12:40:09;;;;;;;3.13;1.63;;;21.60;1.00;;;;;;5113392;28;20891;-46
2023/12/11 12:42:35;;;;;;;3.57;1.47;;;20.80;1.00;;;;;;5113560;28;20187;-45
2023/12/11 12:45:00;;;;;;;4.00;1.90;;;19.90;1.00;;;;;;5114167;28;20421;-46
2023/12/11 12:47:26;;;;;;;4.23;1.70;;;19.80;1.00;;;;;;5114600;28;20248;-46
2023/12/11 12:49:54;;;;;;;5.23;2.20;;;20.50;1.00;;;;;;5121690;28;20218;-55
2023/12/11 12:52:25;;;;;;;3.80;1.80;;;21.90;1.00;;;;;;5134666;27;20446;-45
2023/12/11 12:54:53;;;;;;;4.50;1.80;;;23.40;1.00;;;;;;5134662;27;20420;-46
2023/12/11 12:57:19;;;;;;;1.90;1.03;;;25.00;1.00;;;;;;5133641;27;20424;-46